Time;durP1;ratioP1;P1;durP2;ratioP2;P2;SDS_P1;SDS_P2;PMS_P1;PMS_P2;Temp;Humidity;BMP_temperature;BMP_pressure;BME280_temperature;BME280_humidity;BME280_pressure;Samples;Min_cycle;Max_cycle;Signal;HPM_P1;HPM_P2
2022/04/21 00:00:05;;;;;;;3.60;2.30;;;20.40;56.40;;;;;;5010719;28;89272;-80
2022/04/21 00:02:31;;;;;;;4.72;2.60;;;20.40;56.50;;;;;;5009691;28;89881;-81
2022/04/21 00:04:57;;;;;;;4.25;2.38;;;20.40;57.10;;;;;;5012234;28;88229;-79
2022/04/21 00:07:24;;;;;;;4.38;2.78;;;20.40;56.30;;;;;;5011154;28;87901;-79
2022/04/21 00:09:49;;;;;;;3.72;2.20;;;20.40;56.30;;;;;;5009250;28;90987;-82
2022/04/21 00:12:15;;;;;;;4.20;2.42;;;20.40;56.30;;;;;;5011520;28;87459;-79
2022/04/21 00:14:41;;;;;;;2.92;2.15;;;20.40;56.30;;;;;;5010157;28;88085;-79
2022/04/21 00:17:10;;;;;;;2.85;2.22;;;20.40;56.40;;;;;;5011084;28;87723;-79
2022/04/21 00:19:37;;;;;;;4.38;2.28;;;20.40;56.40;;;;;;5010933;28;87612;-80
2022/04/21 00:24:50;;;;;;;3.67;2.35;;;20.40;56.30;;;;;;5011305;28;87387;-80
2022/04/21 00:27:17;;;;;;;4.97;2.60;;;20.40;56.60;;;;;;5009453;28;89906;-79
2022/04/21 00:29:46;;;;;;;4.75;2.50;;;20.40;56.50;;;;;;5011675;28;88340;-79
2022/04/21 00:32:13;;;;;;;2.80;2.30;;;20.40;56.60;;;;;;5010340;28;91463;-80
2022/04/21 00:34:38;;;;;;;3.30;2.28;;;20.40;56.40;;;;;;5010789;28;87852;-80
2022/04/21 00:37:04;;;;;;;2.53;1.90;;;20.30;56.50;;;;;;5011061;28;87516;-80
2022/04/21 00:39:31;;;;;;;4.07;2.28;;;20.40;56.60;;;;;;5010686;28;88099;-79
2022/04/21 00:42:01;;;;;;;3.83;2.38;;;20.40;56.60;;;;;;5010821;28;87747;-79
2022/04/21 00:44:27;;;;;;;3.03;1.95;;;20.30;56.50;;;;;;5010772;28;87422;-79
2022/04/21 00:46:55;;;;;;;2.63;2.10;;;20.30;56.60;;;;;;5011941;28;86527;-79
2022/04/21 00:49:21;;;;;;;3.55;2.22;;;20.40;56.70;;;;;;5010142;28;89002;-79
2022/04/21 00:51:49;;;;;;;2.38;2.00;;;20.40;56.60;;;;;;5011496;28;87971;-78
2022/04/21 00:54:15;;;;;;;3.30;2.03;;;20.30;56.80;;;;;;5009182;28;89305;-80
2022/04/21 00:56:42;;;;;;;5.22;2.60;;;20.30;56.50;;;;;;5011336;28;86892;-80
2022/04/21 00:59:10;;;;;;;3.10;2.13;;;20.30;56.60;;;;;;5008920;28;92050;-79
2022/04/21 01:04:22;;;;;;;3.67;2.38;;;20.30;56.70;;;;;;5011014;28;87917;-79
2022/04/21 01:06:48;;;;;;;2.53;2.22;;;20.40;56.80;;;;;;5010942;28;87632;-80
2022/04/21 01:09:13;;;;;;;4.70;2.67;;;20.30;56.70;;;;;;5009363;28;87810;-79
2022/04/21 01:11:39;;;;;;;2.42;2.13;;;20.30;56.90;;;;;;5010402;28;87656;-80
2022/04/21 01:14:05;;;;;;;3.97;2.40;;;20.30;56.80;;;;;;5008092;28;88022;-80
2022/04/21 01:16:31;;;;;;;4.72;2.67;;;20.30;56.80;;;;;;5010520;28;87865;-80
2022/04/21 01:18:56;;;;;;;2.42;2.03;;;20.30;56.80;;;;;;5010498;28;88726;-81
2022/04/21 01:21:22;;;;;;;3.33;2.28;;;20.30;56.90;;;;;;5010524;28;88225;-80
2022/04/21 01:23:48;;;;;;;3.15;2.20;;;20.30;56.80;;;;;;5010029;28;87709;-79
2022/04/21 01:26:16;;;;;;;2.70;2.20;;;20.30;56.80;;;;;;5006738;28;86882;-81
2022/04/21 01:28:43;;;;;;;2.80;2.15;;;20.30;56.70;;;;;;5008343;28;90483;-81
2022/04/21 01:31:08;;;;;;;2.33;1.90;;;20.30;56.70;;;;;;5009698;28;87550;-80
2022/04/21 01:33:34;;;;;;;3.45;2.47;;;20.30;56.80;;;;;;5009742;28;87768;-80
2022/04/21 01:35:59;;;;;;;2.50;2.25;;;20.30;56.80;;;;;;5010303;28;87183;-82
2022/04/21 01:41:10;;;;;;;2.70;2.33;;;20.30;56.70;;;;;;5010301;28;87295;-81
2022/04/21 01:43:37;;;;;;;2.63;2.20;;;20.20;56.60;;;;;;5009989;28;88818;-82
2022/04/21 01:46:03;;;;;;;2.53;2.03;;;20.30;56.70;;;;;;5009129;28;87591;-79
2022/04/21 01:48:29;;;;;;;2.92;2.20;;;20.20;56.60;;;;;;5008294;28;87865;-80
2022/04/21 01:50:55;;;;;;;4.40;1.92;;;20.20;56.60;;;;;;5009393;28;87597;-79
2022/04/21 01:53:20;;;;;;;2.10;1.90;;;20.20;56.70;;;;;;5010545;28;87508;-80
2022/04/21 01:55:46;;;;;;;2.50;2.05;;;20.30;56.70;;;;;;5009896;28;86929;-80
2022/04/21 01:58:12;;;;;;;4.28;2.03;;;20.30;56.80;;;;;;5009753;28;88613;-80
2022/04/21 02:00:39;;;;;;;2.40;2.05;;;20.30;56.70;;;;;;5051263;22;87152;-66
2022/04/21 02:03:05;;;;;;;2.63;1.98;;;20.20;56.70;;;;;;5001337;28;87042;-66
2022/04/21 02:05:31;;;;;;;2.72;2.13;;;20.20;56.70;;;;;;5009393;28;87675;-66
2022/04/21 02:07:57;;;;;;;2.60;2.30;;;20.20;56.70;;;;;;5009257;28;88848;-66
2022/04/21 02:10:23;;;;;;;2.53;2.00;;;20.20;56.60;;;;;;5011517;28;88766;-67
2022/04/21 02:12:49;;;;;;;3.03;2.15;;;20.20;56.70;;;;;;4999280;28;87319;-65
2022/04/21 02:15:24;;;;;;;5.00;2.58;;;20.20;56.80;;;;;;4998096;28;90361;-65
2022/04/21 02:17:50;;;;;;;2.50;1.85;;;20.20;56.70;;;;;;4999279;28;92452;-66
2022/04/21 02:20:17;;;;;;;2.72;2.08;;;20.20;56.60;;;;;;5009091;28;89720;-66
2022/04/21 02:22:45;;;;;;;2.78;2.00;;;20.20;56.80;;;;;;5001887;28;87782;-66
2022/04/21 02:25:15;;;;;;;2.65;2.00;;;20.20;56.80;;;;;;5008011;28;87001;-66
2022/04/21 02:27:46;;;;;;;2.67;1.98;;;20.20;56.70;;;;;;5014841;28;91115;-65
2022/04/21 02:30:14;;;;;;;2.45;2.13;;;20.20;56.60;;;;;;5010191;28;87905;-65
2022/04/21 02:32:40;;;;;;;2.63;2.10;;;20.20;56.70;;;;;;5010686;28;88619;-65
2022/04/21 02:35:07;;;;;;;2.13;1.90;;;20.20;56.60;;;;;;5007271;28;88572;-65
2022/04/21 02:37:43;;;;;;;2.50;1.90;;;20.20;56.70;;;;;;5008771;28;88624;-66
2022/04/21 02:40:10;;;;;;;2.10;1.90;;;20.20;56.80;;;;;;5006593;28;89197;-66
2022/04/21 02:42:48;;;;;;;3.00;2.15;;;20.20;56.80;;;;;;5010294;28;87418;-65
2022/04/21 02:45:14;;;;;;;2.45;1.90;;;20.20;57.50;;;;;;5008188;28;90885;-66
2022/04/21 02:47:42;;;;;;;2.63;1.95;;;20.20;56.70;;;;;;5010050;28;88125;-66
2022/04/21 02:50:08;;;;;;;3.50;2.10;;;20.20;56.80;;;;;;4999874;28;91394;-66
2022/04/21 02:52:36;;;;;;;2.83;1.73;;;20.20;56.90;;;;;;5010623;28;87023;-65
2022/04/21 02:57:46;;;;;;;2.10;1.90;;;20.10;56.90;;;;;;5009364;28;88425;-66
2022/04/21 03:00:14;;;;;;;2.75;1.95;;;20.20;56.80;;;;;;5007199;28;89970;-65
2022/04/21 03:02:43;;;;;;;2.10;1.90;;;20.10;56.80;;;;;;5008508;28;87968;-66
2022/04/21 03:05:09;;;;;;;1.97;1.77;;;20.20;56.90;;;;;;5010678;28;87792;-66
2022/04/21 03:07:39;;;;;;;2.35;1.90;;;20.10;57.60;;;;;;5010894;28;87468;-65
2022/04/21 03:10:06;;;;;;;2.92;1.90;;;20.10;57.00;;;;;;5011247;28;87770;-66
2022/04/21 03:12:32;;;;;;;2.22;1.80;;;20.10;56.80;;;;;;5009402;28;86973;-66
2022/04/21 03:14:57;;;;;;;2.72;1.90;;;20.10;56.80;;;;;;4997126;28;90335;-66
2022/04/21 03:17:24;;;;;;;3.13;2.22;;;20.10;56.90;;;;;;5009630;28;87635;-65
2022/04/21 03:19:50;;;;;;;2.28;1.98;;;20.10;56.90;;;;;;4999117;28;88513;-66
2022/04/21 03:25:02;;;;;;;2.80;1.77;;;20.10;56.80;;;;;;5008781;28;87623;-66
2022/04/21 03:27:29;;;;;;;2.42;1.75;;;20.10;56.90;;;;;;5010394;28;87979;-66
2022/04/21 03:29:55;;;;;;;2.83;2.00;;;20.10;56.80;;;;;;5010410;28;87471;-66
2022/04/21 03:32:21;;;;;;;2.88;2.03;;;20.10;56.80;;;;;;5010481;28;88052;-66
2022/04/21 03:34:47;;;;;;;2.13;1.73;;;20.10;56.80;;;;;;5006840;28;89919;-66
2022/04/21 03:37:14;;;;;;;1.98;1.70;;;20.10;56.80;;;;;;5010619;28;87078;-66
2022/04/21 03:39:51;;;;;;;2.28;1.98;;;20.10;57.00;;;;;;5013776;28;87054;-66
2022/04/21 03:42:19;;;;;;;2.20;1.60;;;20.10;56.80;;;;;;5015262;28;88099;-66
2022/04/21 03:44:45;;;;;;;2.40;1.70;;;20.10;56.90;;;;;;5011363;28;87759;-66
2022/04/21 03:47:11;;;;;;;3.00;2.17;;;20.10;56.80;;;;;;5010986;28;89004;-66
2022/04/21 03:49:36;;;;;;;3.05;2.10;;;20.00;56.70;;;;;;5010031;28;90926;-66
2022/04/21 03:52:02;;;;;;;2.17;1.88;;;20.10;56.80;;;;;;5014058;28;87464;-66
2022/04/21 03:54:28;;;;;;;1.60;1.50;;;20.00;56.70;;;;;;5024131;28;89269;-66
2022/04/21 03:56:54;;;;;;;2.00;1.70;;;20.10;57.40;;;;;;5011927;28;88204;-66
2022/04/21 03:59:23;;;;;;;1.98;1.70;;;20.10;56.60;;;;;;5010821;28;87865;-65
2022/04/21 04:01:52;;;;;;;2.30;1.52;;;20.10;56.80;;;;;;5012879;28;87493;-66
2022/04/21 04:04:18;;;;;;;2.30;1.95;;;20.00;56.70;;;;;;5012905;28;87060;-66
2022/04/21 04:12:15;;;;;;;2.00;1.70;;;20.00;56.80;;;;;;5011586;28;88356;-66
2022/04/21 04:14:40;;;;;;;1.88;1.75;;;20.00;56.70;;;;;;5010217;28;90059;-66
2022/04/21 04:17:06;;;;;;;2.00;1.67;;;20.00;56.60;;;;;;5013080;28;87817;-66
2022/04/21 04:19:33;;;;;;;2.00;1.80;;;20.00;56.80;;;;;;5012706;28;87789;-66
2022/04/21 04:22:00;;;;;;;2.58;1.88;;;20.00;56.70;;;;;;5016657;28;87203;-66
2022/04/21 04:24:26;;;;;;;2.42;1.70;;;20.00;56.70;;;;;;5012439;28;87175;-65
2022/04/21 04:26:54;;;;;;;2.72;1.90;;;20.00;56.90;;;;;;5012632;28;87503;-66
2022/04/21 04:29:23;;;;;;;2.90;2.35;;;20.00;56.80;;;;;;5012670;28;87874;-66
2022/04/21 04:31:52;;;;;;;2.30;1.75;;;20.00;56.70;;;;;;5009851;28;86968;-66
2022/04/21 04:34:25;;;;;;;3.25;1.85;;;20.00;56.80;;;;;;5010151;28;87725;-66
2022/04/21 04:36:50;;;;;;;2.33;2.10;;;20.00;56.70;;;;;;5009080;28;89263;-66
2022/04/21 04:39:16;;;;;;;2.67;1.83;;;20.00;56.70;;;;;;5011556;28;88618;-66
2022/04/21 04:42:24;;;;;;;2.08;1.63;;;20.00;56.60;;;;;;5011511;28;87519;-66
2022/04/21 04:44:31;;;;;;;1.92;1.58;;;20.00;56.70;;;;;;5003453;28;87442;-66
2022/04/21 04:46:57;;;;;;;2.22;1.80;;;20.00;56.70;;;;;;5011415;28;87274;-66
2022/04/21 04:49:23;;;;;;;1.65;1.48;;;20.00;56.60;;;;;;5009312;28;90993;-66
2022/04/21 04:51:50;;;;;;;2.28;1.70;;;20.00;56.70;;;;;;5001676;28;88126;-66
2022/04/21 04:54:16;;;;;;;2.00;1.60;;;20.00;56.70;;;;;;5012793;28;88547;-65
2022/04/21 04:56:45;;;;;;;2.10;1.50;;;19.90;56.60;;;;;;5008993;28;91195;-65
2022/04/21 04:59:11;;;;;;;1.92;1.77;;;20.00;56.70;;;;;;5010472;28;87206;-66
2022/04/21 05:01:46;;;;;;;2.10;1.80;;;19.90;56.60;;;;;;5012353;28;88278;-65
2022/04/21 05:04:13;;;;;;;2.00;1.80;;;20.00;56.80;;;;;;5001268;28;91035;-66
2022/04/21 05:06:53;;;;;;;2.60;1.80;;;19.90;56.60;;;;;;5009845;28;88827;-65
2022/04/21 05:09:21;;;;;;;2.42;1.70;;;19.90;56.70;;;;;;5010591;28;87912;-66
2022/04/21 05:11:52;;;;;;;4.10;1.70;;;19.90;56.80;;;;;;5011598;28;87806;-65
2022/04/21 05:14:18;;;;;;;4.40;2.00;;;20.00;57.00;;;;;;4999053;28;89503;-65
2022/04/21 05:16:44;;;;;;;6.20;2.28;;;20.00;55.10;;;;;;5006648;28;91321;-65
2022/04/21 05:19:14;;;;;;;2.42;1.90;;;20.00;55.00;;;;;;5006324;28;87764;-65
2022/04/21 05:21:40;;;;;;;;;;;20.00;55.00;;;;;;5011062;28;87835;-65
2022/04/21 05:24:10;;;;;;;7.82;1.95;;;20.00;55.40;;;;;;5012713;28;87973;-65
2022/04/21 05:26:41;;;;;;;2.00;1.80;;;20.00;55.20;;;;;;5009293;28;92495;-64
2022/04/21 05:32:00;;;;;;;3.90;2.10;;;20.00;54.80;;;;;;5009510;28;87965;-65
2022/04/21 05:34:34;;;;;;;5.40;2.03;;;20.10;55.30;;;;;;5009674;28;87456;-65
2022/04/21 05:37:02;;;;;;;3.22;2.10;;;20.10;55.40;;;;;;5010399;28;87930;-65
2022/04/21 05:39:31;;;;;;;5.07;2.15;;;20.00;55.10;;;;;;5011164;28;87960;-65
2022/04/21 05:42:06;;;;;;;4.97;2.08;;;20.10;55.40;;;;;;5010385;28;87222;-65
2022/04/21 05:44:32;;;;;;;2.75;2.17;;;20.10;55.40;;;;;;5010554;28;87081;-65
2022/04/21 05:46:58;;;;;;;4.10;2.38;;;20.10;55.30;;;;;;5001047;28;92408;-65
2022/04/21 05:49:24;;;;;;;5.25;2.40;;;20.10;55.20;;;;;;5008369;28;90978;-65
2022/04/21 05:51:52;;;;;;;5.03;2.50;;;20.10;55.30;;;;;;5007336;28;88609;-65
2022/04/21 05:54:18;;;;;;;6.55;2.40;;;20.10;55.10;;;;;;5007615;28;90464;-65
2022/04/21 05:56:44;;;;;;;8.60;2.38;;;20.10;55.10;;;;;;5011118;28;87811;-65
2022/04/21 05:59:10;;;;;;;4.60;2.53;;;20.10;55.00;;;;;;5010411;28;87801;-65
2022/04/21 06:01:38;;;;;;;9.43;2.50;;;20.10;54.80;;;;;;5008166;28;87387;-65
2022/04/21 06:04:04;;;;;;;6.78;2.50;;;20.10;54.90;;;;;;5008263;28;87506;-65
2022/04/21 06:06:29;;;;;;;4.10;2.33;;;20.10;55.10;;;;;;5009817;28;87897;-65
2022/04/21 06:08:59;;;;;;;6.50;2.60;;;20.10;55.00;;;;;;5011277;28;88222;-65
2022/04/21 06:11:25;;;;;;;5.43;2.60;;;20.10;54.90;;;;;;5009977;28;87441;-65
2022/04/21 06:13:52;;;;;;;6.22;2.05;;;20.10;54.90;;;;;;5011123;28;87788;-66
2022/04/21 06:16:18;;;;;;;6.55;2.38;;;20.10;54.70;;;;;;5009408;28;89601;-65
2022/04/21 06:18:45;;;;;;;12.60;3.42;;;20.10;54.80;;;;;;5009611;28;87313;-65
2022/04/21 06:21:11;;;;;;;16.02;3.75;;;20.20;54.90;;;;;;5011392;28;87676;-65
2022/04/21 06:23:44;;;;;;;4.47;2.47;;;20.10;55.00;;;;;;5003432;28;90727;-65
2022/04/21 06:26:10;;;;;;;7.63;2.65;;;20.10;56.50;;;;;;5007319;28;91139;-64
2022/04/21 06:28:41;;;;;;;5.95;2.60;;;20.20;56.30;;;;;;5008753;28;88726;-65
2022/04/21 06:31:07;;;;;;;6.60;2.58;;;20.20;56.50;;;;;;5007687;28;87972;-66
2022/04/21 06:33:33;;;;;;;5.78;2.75;;;20.20;56.50;;;;;;5013167;28;86802;-66
2022/04/21 06:36:00;;;;;;;9.00;3.42;;;20.20;56.40;;;;;;5008650;28;91083;-65
2022/04/21 06:38:25;;;;;;;7.22;2.47;;;20.20;56.40;;;;;;5008641;28;88066;-65
2022/04/21 06:40:51;;;;;;;7.82;2.75;;;20.20;56.50;;;;;;5009462;28;87962;-65
2022/04/21 06:48:48;;;;;;;25.65;6.68;;;20.20;57.00;;;;;;5009335;28;87451;-65
2022/04/21 06:51:15;;;;;;;26.45;5.35;;;20.30;56.40;;;;;;5007349;28;87943;-65
2022/04/21 06:53:45;;;;;;;28.98;7.20;;;20.30;56.90;;;;;;5010000;28;87590;-65
2022/04/21 06:56:11;;;;;;;29.60;6.47;;;20.30;57.20;;;;;;4997852;28;94204;-65
2022/04/21 06:58:37;;;;;;;37.08;6.65;;;20.30;57.10;;;;;;5006411;28;91611;-65
2022/04/21 07:01:05;;;;;;;29.92;7.80;;;20.30;56.90;;;;;;5004062;28;92859;-66
2022/04/21 07:03:34;;;;;;;27.58;7.82;;;20.30;56.60;;;;;;5019490;22;93150;-81
2022/04/21 07:06:01;;;;;;;30.30;6.47;;;20.30;56.40;;;;;;5011324;28;96312;-81
2022/04/21 07:08:26;;;;;;;18.13;5.63;;;20.30;56.50;;;;;;5012642;28;94946;-81
2022/04/21 07:10:52;;;;;;;18.85;5.57;;;20.30;56.90;;;;;;5015316;28;92406;-81
2022/04/21 07:13:18;;;;;;;27.73;7.25;;;20.30;56.10;;;;;;5014962;28;92333;-80
2022/04/21 07:15:44;;;;;;;27.10;7.40;;;20.40;56.10;;;;;;5017842;28;93693;-80
2022/04/21 07:18:18;;;;;;;23.33;6.55;;;20.30;56.30;;;;;;4967008;28;93368;-81
2022/04/21 07:20:44;;;;;;;19.77;5.70;;;20.30;56.90;;;;;;4928505;28;92244;-81
2022/04/21 07:23:09;;;;;;;17.77;5.82;;;20.30;56.00;;;;;;4983407;28;91890;-81
2022/04/21 07:25:35;;;;;;;21.83;5.15;;;20.30;55.60;;;;;;5023810;28;92602;-80
2022/04/21 07:28:01;;;;;;;15.73;5.20;;;20.30;55.60;;;;;;5010023;28;92934;-81
2022/04/21 07:30:27;;;;;;;17.15;5.95;;;20.40;56.10;;;;;;4962673;28;95744;-81
2022/04/21 07:32:52;;;;;;;14.45;5.18;;;20.40;56.00;;;;;;5018822;28;92371;-81
2022/04/21 07:35:18;;;;;;;22.80;6.38;;;20.30;55.80;;;;;;5022929;28;92570;-80
2022/04/21 07:37:44;;;;;;;21.90;6.20;;;20.30;55.20;;;;;;5018540;28;92923;-79
2022/04/21 07:40:10;;;;;;;24.20;7.40;;;20.40;55.40;;;;;;5017781;28;92454;-80
2022/04/21 07:42:37;;;;;;;21.00;6.55;;;20.40;55.40;;;;;;5022409;28;92082;-81
2022/04/21 07:45:03;;;;;;;22.17;6.15;;;20.40;55.30;;;;;;5015103;28;93021;-81
2022/04/21 07:47:29;;;;;;;18.02;6.32;;;20.40;55.30;;;;;;5015353;28;94657;-80
2022/04/21 07:49:56;;;;;;;28.23;6.43;;;20.40;55.20;;;;;;5019489;28;92916;-80
2022/04/21 07:55:17;;;;;;;26.30;7.05;;;20.40;55.60;;;;;;5019646;28;93804;-81
2022/04/21 07:57:44;;;;;;;21.92;6.07;;;20.40;55.10;;;;;;5013625;28;96567;-81
2022/04/21 08:00:12;;;;;;;25.98;6.47;;;20.40;55.70;;;;;;5017736;28;92788;-81
2022/04/21 08:02:42;;;;;;;25.75;7.25;;;20.40;55.60;;;;;;5015880;27;92576;-81
2022/04/21 08:05:09;;;;;;;31.95;8.65;;;20.40;55.90;;;;;;5013503;28;93345;-81
2022/04/21 08:07:35;;;;;;;26.65;7.32;;;20.40;55.80;;;;;;5016732;27;92593;-81
2022/04/21 08:10:05;;;;;;;37.50;9.63;;;20.40;56.00;;;;;;5018861;27;92677;-81
2022/04/21 08:12:48;;;;;;;27.25;8.30;;;20.40;56.10;;;;;;5022672;28;91955;-81
2022/04/21 08:15:21;;;;;;;26.70;8.35;;;20.40;56.00;;;;;;5015506;27;93055;-81
2022/04/21 08:17:47;;;;;;;36.28;9.20;;;20.40;56.30;;;;;;5020037;28;92150;-81
2022/04/21 08:20:13;;;;;;;33.83;8.75;;;20.40;56.40;;;;;;5014857;28;93789;-82
2022/04/21 08:22:39;;;;;;;30.08;8.30;;;20.40;56.60;;;;;;5016844;28;92834;-83
2022/04/21 08:33:20;;;;;;;27.42;8.93;;;20.40;56.40;;;;;;5020876;28;93019;-82
2022/04/21 08:35:48;;;;;;;31.17;9.27;;;20.40;56.40;;;;;;5017061;28;93616;-81
2022/04/21 08:38:14;;;;;;;31.83;8.45;;;20.50;56.50;;;;;;5020970;28;92476;-82
2022/04/21 08:40:50;;;;;;;31.23;8.27;;;20.50;56.80;;;;;;5016701;28;92630;-85
2022/04/21 08:43:17;;;;;;;47.85;10.63;;;20.50;57.10;;;;;;5018634;28;92913;-81
2022/04/21 08:45:44;;;;;;;34.83;8.68;;;20.50;57.00;;;;;;5017758;28;93888;-81
2022/04/21 08:48:21;;;;;;;31.23;9.95;;;20.50;57.40;;;;;;5016728;28;96519;-83
2022/04/21 08:50:48;;;;;;;28.80;8.95;;;20.50;57.30;;;;;;5013435;28;92554;-82
2022/04/21 08:53:19;;;;;;;33.22;8.45;;;20.50;57.20;;;;;;5019118;28;92649;-83
2022/04/21 08:55:47;;;;;;;32.22;8.23;;;20.50;57.30;;;;;;5022706;28;95630;-83
2022/04/21 08:58:13;;;;;;;29.30;8.80;;;20.50;57.60;;;;;;5023042;28;92886;-83
2022/04/21 09:00:41;;;;;;;26.10;8.50;;;20.50;57.80;;;;;;5022795;28;92453;-82
2022/04/21 09:03:08;;;;;;;23.33;8.07;;;20.50;57.80;;;;;;5015979;28;91800;-83
2022/04/21 09:05:35;;;;;;;25.33;8.25;;;20.50;58.00;;;;;;5029160;27;95637;-83
2022/04/21 09:08:01;;;;;;;26.35;8.25;;;20.60;58.00;;;;;;5018150;28;92985;-82
2022/04/21 09:10:29;;;;;;;26.65;8.73;;;20.60;58.30;;;;;;5021319;28;93433;-83
2022/04/21 09:12:56;;;;;;;27.92;8.10;;;20.60;58.60;;;;;;5020904;27;92007;-83
2022/04/21 09:15:43;;;;;;;26.48;8.00;;;20.60;59.10;;;;;;5018956;28;92529;-82
2022/04/21 09:18:13;;;;;;;24.55;7.88;;;20.60;59.40;;;;;;5022456;28;93424;-82
2022/04/21 09:20:43;;;;;;;27.65;7.93;;;20.60;59.60;;;;;;5020719;28;92323;-82
2022/04/21 09:23:10;;;;;;;25.98;7.78;;;20.60;59.50;;;;;;5024495;28;92551;-82
2022/04/21 09:25:50;;;;;;;25.15;7.78;;;20.60;59.50;;;;;;5018050;28;95560;-82
2022/04/21 09:28:24;;;;;;;25.73;8.27;;;20.60;59.40;;;;;;5012209;28;95407;-83
2022/04/21 09:30:51;;;;;;;39.83;8.70;;;20.60;59.00;;;;;;5015824;28;92297;-82
2022/04/21 09:33:28;;;;;;;27.63;9.18;;;20.60;59.30;;;;;;5014394;27;92574;-82
2022/04/21 09:35:56;;;;;;;26.92;7.60;;;20.60;59.30;;;;;;5016236;28;95723;-83
2022/04/21 09:38:22;;;;;;;31.23;7.95;;;20.60;59.70;;;;;;5019422;28;93193;-83
2022/04/21 09:40:49;;;;;;;26.98;8.25;;;20.60;59.70;;;;;;5018138;27;93001;-82
2022/04/21 09:43:28;;;;;;;22.98;8.20;;;20.60;59.60;;;;;;5014848;28;92204;-83
2022/04/21 09:46:09;;;;;;;28.75;8.63;;;20.70;59.60;;;;;;5020806;28;93861;-82
2022/04/21 09:48:36;;;;;;;27.80;7.85;;;20.60;59.50;;;;;;5015068;28;95086;-82
2022/04/21 09:51:16;;;;;;;26.08;7.57;;;20.60;59.40;;;;;;5015622;28;92715;-82
2022/04/21 09:53:57;;;;;;;28.25;7.90;;;20.60;60.30;;;;;;5019138;28;92318;-82
2022/04/21 09:56:34;;;;;;;22.73;6.65;;;20.60;60.60;;;;;;5018691;28;94169;-82
2022/04/21 09:59:02;;;;;;;21.48;7.57;;;20.70;60.30;;;;;;5018801;27;92926;-82
2022/04/21 10:01:29;;;;;;;27.10;8.45;;;20.70;60.40;;;;;;5023736;28;92984;-82
2022/04/21 10:03:56;;;;;;;24.90;7.20;;;20.60;61.20;;;;;;5019547;28;92873;-83
2022/04/21 10:06:22;;;;;;;24.80;7.35;;;20.70;61.90;;;;;;5018917;28;95465;-83
2022/04/21 10:09:06;;;;;;;26.35;8.98;;;20.70;61.90;;;;;;5019760;28;95282;-83
2022/04/21 10:11:32;;;;;;;29.45;7.72;;;20.70;62.10;;;;;;5020271;28;91943;-83
2022/04/21 10:13:58;;;;;;;19.20;6.63;;;20.70;62.20;;;;;;5021428;28;91901;-83
2022/04/21 10:16:28;;;;;;;27.33;8.07;;;20.70;62.60;;;;;;5015261;28;93353;-83
2022/04/21 10:18:57;;;;;;;19.80;7.28;;;20.70;62.50;;;;;;5020572;28;92651;-83
2022/04/21 10:21:37;;;;;;;22.17;7.55;;;20.70;62.50;;;;;;5015222;28;92520;-82
2022/04/21 10:24:04;;;;;;;21.17;8.00;;;20.70;62.30;;;;;;5018713;28;92617;-83
2022/04/21 10:26:41;;;;;;;17.95;6.72;;;20.70;61.90;;;;;;5023349;28;95683;-81
2022/04/21 10:29:15;;;;;;;20.77;7.90;;;20.70;62.50;;;;;;5016402;28;95962;-83
2022/04/21 10:32:03;;;;;;;27.08;8.23;;;20.70;62.20;;;;;;5016429;28;93500;-83
2022/04/21 10:34:37;;;;;;;20.92;7.05;;;20.70;61.50;;;;;;5010439;28;92022;-82
2022/04/21 10:37:38;;;;;;;20.73;7.03;;;20.70;61.30;;;;;;5013607;28;93200;-82
2022/04/21 10:40:06;;;;;;;18.65;7.35;;;20.70;61.10;;;;;;5016359;27;95695;-82
2022/04/21 10:43:03;;;;;;;16.83;6.50;;;20.70;61.30;;;;;;5017902;28;91975;-83
2022/04/21 10:45:31;;;;;;;14.00;6.35;;;20.70;61.90;;;;;;5018068;28;92373;-83
2022/04/21 10:48:08;;;;;;;20.92;6.72;;;20.70;61.90;;;;;;5021736;28;93066;-83
2022/04/21 10:50:36;;;;;;;26.02;7.68;;;20.70;61.90;;;;;;5020348;28;92444;-82
2022/04/21 10:58:34;;;;;;;15.05;6.15;;;20.70;61.30;;;;;;5026006;28;92464;-82
2022/04/21 11:01:13;;;;;;;19.95;6.47;;;20.60;61.30;;;;;;5021900;28;92976;-83
2022/04/21 11:03:41;;;;;;;14.45;7.32;;;20.70;60.60;;;;;;5021105;28;92546;-82
2022/04/21 11:06:08;;;;;;;14.70;6.97;;;20.60;60.00;;;;;;5013704;28;92824;-83
2022/04/21 11:08:34;;;;;;;14.93;6.53;;;20.60;59.80;;;;;;5020221;28;93182;-83
2022/04/21 11:11:00;;;;;;;15.20;6.18;;;20.60;59.30;;;;;;5022887;28;92528;-83
2022/04/21 11:13:49;;;;;;;11.70;5.53;;;20.70;59.30;;;;;;5016499;28;92694;-83
2022/04/21 11:16:40;;;;;;;21.30;6.30;;;20.60;58.70;;;;;;5028919;28;93171;-82
2022/04/21 11:19:34;;;;;;;11.30;5.43;;;20.60;58.70;;;;;;5020855;28;94129;-83
2022/04/21 11:22:04;;;;;;;13.43;6.40;;;20.60;58.40;;;;;;5018079;28;95170;-82
2022/04/21 11:24:55;;;;;;;14.50;5.78;;;20.60;58.40;;;;;;5021526;28;92062;-82
2022/04/21 11:27:22;;;;;;;16.95;5.88;;;20.70;58.40;;;;;;5016287;28;92814;-82
2022/04/21 11:29:48;;;;;;;11.48;5.53;;;20.60;57.80;;;;;;5017178;28;96490;-82
2022/04/21 11:32:18;;;;;;;15.30;5.10;;;20.70;58.50;;;;;;5018399;28;93114;-82
2022/04/21 11:35:00;;;;;;;14.43;5.13;;;20.70;58.50;;;;;;5015146;28;92343;-82
2022/04/21 11:37:58;;;;;;;12.88;5.50;;;20.60;58.40;;;;;;5018883;28;92255;-82
2022/04/21 11:40:29;;;;;;;17.98;5.60;;;20.60;58.50;;;;;;5016380;28;93176;-83
2022/04/21 11:42:58;;;;;;;17.02;5.40;;;20.70;58.60;;;;;;5017416;28;93148;-82
2022/04/21 11:45:28;;;;;;;17.63;5.53;;;20.70;58.50;;;;;;5018049;28;92829;-82
2022/04/21 11:47:55;;;;;;;17.63;6.60;;;20.70;58.40;;;;;;5019836;28;92673;-82
2022/04/21 11:50:28;;;;;;;16.75;5.78;;;20.70;58.10;;;;;;5021516;28;93151;-82
2022/04/21 11:52:55;;;;;;;21.15;6.43;;;20.70;58.10;;;;;;5020159;28;93381;-82
2022/04/21 11:55:22;;;;;;;16.55;5.88;;;20.60;58.00;;;;;;5014457;27;92416;-82
2022/04/21 11:57:49;;;;;;;19.15;6.22;;;20.70;58.00;;;;;;5021226;28;92893;-82
2022/04/21 12:00:17;;;;;;;17.13;5.80;;;20.70;58.00;;;;;;5017962;28;93561;-83
2022/04/21 12:08:13;;;;;;;17.50;5.95;;;20.70;58.00;;;;;;5020961;28;93771;-82
2022/04/21 12:10:40;;;;;;;12.18;5.95;;;20.70;57.80;;;;;;5023878;27;93931;-82
2022/04/21 12:13:07;;;;;;;19.95;5.85;;;20.70;58.00;;;;;;5018159;28;93478;-82
2022/04/21 12:15:36;;;;;;;14.18;5.43;;;20.70;58.00;;;;;;5023069;28;92699;-82
2022/04/21 12:18:02;;;;;;;16.67;6.00;;;20.70;58.10;;;;;;5020788;27;92094;-82
2022/04/21 12:20:39;;;;;;;10.23;5.68;;;20.70;58.20;;;;;;5018183;28;92793;-83
2022/04/21 12:23:06;;;;;;;14.00;5.50;;;20.70;58.20;;;;;;5018491;28;95504;-82
2022/04/21 12:25:32;;;;;;;12.70;5.70;;;20.70;58.20;;;;;;5020623;28;91973;-82
2022/04/21 12:28:05;;;;;;;17.02;5.60;;;20.70;58.00;;;;;;5016321;28;92113;-82
2022/04/21 12:30:31;;;;;;;15.65;5.75;;;20.70;57.60;;;;;;5014226;28;92583;-82
2022/04/21 12:32:57;;;;;;;12.32;5.10;;;20.70;57.70;;;;;;5018384;28;92881;-82
2022/04/21 12:35:45;;;;;;;10.40;4.50;;;20.70;57.30;;;;;;5017371;28;93665;-82
2022/04/21 12:40:59;;;;;;;11.43;5.40;;;20.70;57.00;;;;;;5024913;28;92716;-82
2022/04/21 12:43:30;;;;;;;13.75;5.00;;;20.70;57.60;;;;;;5019840;28;93286;-82
2022/04/21 12:46:00;;;;;;;13.48;5.20;;;20.70;57.10;;;;;;5015464;28;92241;-82
2022/04/21 12:48:27;;;;;;;15.52;5.38;;;20.70;57.00;;;;;;5018102;28;92092;-83
2022/04/21 12:50:55;;;;;;;11.35;4.85;;;20.70;56.60;;;;;;5018277;28;94461;-82
2022/04/21 12:53:28;;;;;;;11.70;4.45;;;20.70;56.70;;;;;;5016186;28;93563;-82
2022/04/21 12:55:55;;;;;;;10.85;4.68;;;20.70;56.30;;;;;;5016352;28;92446;-83
2022/04/21 12:58:32;;;;;;;11.32;4.63;;;20.70;56.70;;;;;;5014269;27;92619;-84
2022/04/21 13:01:00;;;;;;;11.98;5.00;;;20.70;57.00;;;;;;5019461;28;93863;-82
2022/04/21 13:03:27;;;;;;;12.43;4.65;;;20.70;56.20;;;;;;5020513;28;93498;-82
2022/04/21 13:05:55;;;;;;;11.32;4.70;;;20.70;56.70;;;;;;5021146;28;92986;-83
2022/04/21 13:08:24;;;;;;;9.23;4.43;;;20.70;56.80;;;;;;5020965;27;92422;-83
2022/04/21 13:10:51;;;;;;;11.93;4.23;;;20.70;56.70;;;;;;5013693;28;94797;-83
2022/04/21 13:13:16;;;;;;;17.85;4.93;;;20.70;56.50;;;;;;5015752;28;93050;-83
2022/04/21 13:15:43;;;;;;;16.58;4.80;;;20.70;56.40;;;;;;5014872;28;92595;-83
2022/04/21 13:18:09;;;;;;;13.75;4.85;;;20.70;56.20;;;;;;5022315;28;91779;-83
2022/04/21 13:23:25;;;;;;;10.75;3.78;;;20.70;56.40;;;;;;5020883;28;92266;-83
2022/04/21 13:25:54;;;;;;;9.88;4.20;;;20.70;56.70;;;;;;5021207;28;92930;-84
2022/04/21 13:28:21;;;;;;;9.97;3.80;;;20.70;56.60;;;;;;5017631;28;92425;-83
2022/04/21 13:30:46;;;;;;;10.88;4.20;;;20.70;56.60;;;;;;5014294;28;93360;-83
2022/04/21 13:33:21;;;;;;;11.02;4.57;;;20.70;57.00;;;;;;5020208;28;92568;-83
2022/04/21 13:35:51;;;;;;;11.38;4.03;;;20.70;56.80;;;;;;5023020;28;92343;-83
2022/04/21 13:38:17;;;;;;;14.15;4.97;;;20.70;56.80;;;;;;5022193;28;92766;-83
2022/04/21 13:40:44;;;;;;;12.35;4.60;;;20.70;56.90;;;;;;5023142;27;92533;-83
2022/04/21 13:43:10;;;;;;;13.50;4.68;;;20.70;57.10;;;;;;5015000;28;93917;-83
2022/04/21 13:45:39;;;;;;;13.73;4.65;;;20.70;57.00;;;;;;5020233;28;92090;-83